createdAt,value
2022-10-07T00:02:13.222Z,5.55
2022-10-07T00:04:57.819Z,4.10
2022-10-07T00:07:35.959Z,5.20
2022-10-07T00:10:17.899Z,4.97
2022-10-07T00:12:49.943Z,2.70
2022-10-07T00:15:24.021Z,2.30
2022-10-07T00:17:55.395Z,2.80
2022-10-07T00:20:28.302Z,3.42
2022-10-07T00:23:00.891Z,3.50
2022-10-07T00:25:30.019Z,3.10
2022-10-07T00:28:12.726Z,3.65
2022-10-07T00:33:17.982Z,3.40
2022-10-07T00:36:00.426Z,3.70
2022-10-07T00:38:43.098Z,3.47
2022-10-07T00:41:29.926Z,4.72
2022-10-07T00:44:23.344Z,4.10
2022-10-07T00:46:53.088Z,4.13
2022-10-07T00:49:27.164Z,3.72
2022-10-07T00:51:58.907Z,4.00
2022-10-07T00:54:30.256Z,3.60
2022-10-07T00:57:09.899Z,4.07
2022-10-07T00:59:42.847Z,4.32
2022-10-07T01:02:16.786Z,4.10
2022-10-07T01:04:54.743Z,3.88
2022-10-07T01:07:25.164Z,3.75
2022-10-07T01:09:58.907Z,3.40
2022-10-07T01:12:48.760Z,3.10
2022-10-07T01:15:28.042Z,2.83
2022-10-07T01:18:18.922Z,3.00
2022-10-07T01:20:59.965Z,3.10
2022-10-07T01:23:59.632Z,3.15
2022-10-07T01:26:48.239Z,3.03
2022-10-07T01:29:33.388Z,3.38
2022-10-07T01:32:12.693Z,3.75
2022-10-07T01:34:49.038Z,3.53
2022-10-07T01:37:38.708Z,3.60
2022-10-07T01:40:22.531Z,3.22
2022-10-07T01:43:04.182Z,3.08
2022-10-07T01:45:45.186Z,3.15
2022-10-07T01:48:17.826Z,2.53
2022-10-07T01:50:50.284Z,2.65
2022-10-07T01:53:54.427Z,2.35
2022-10-07T01:56:45.168Z,2.03
2022-10-07T01:59:54.581Z,2.70
2022-10-07T02:02:47.870Z,3.00
2022-10-07T02:05:29.303Z,3.67
2022-10-07T02:08:21.937Z,3.35
2022-10-07T02:11:04.410Z,3.33
2022-10-07T02:13:49.843Z,3.33
2022-10-07T02:16:33.106Z,2.88
2022-10-07T02:19:06.810Z,4.38
2022-10-07T02:21:47.342Z,3.47
2022-10-07T02:24:25.522Z,3.60
2022-10-07T02:27:12.521Z,3.72
2022-10-07T02:30:07.276Z,4.13
2022-10-07T02:32:51.592Z,4.18
2022-10-07T02:35:38.590Z,4.47
2022-10-07T02:38:16.591Z,4.45
2022-10-07T02:41:01.095Z,3.53
2022-10-07T02:43:39.973Z,3.30
2022-10-07T02:46:16.288Z,2.80
2022-10-07T02:49:04.982Z,3.30
2022-10-07T02:51:41.029Z,3.30
2022-10-07T02:54:13.414Z,3.38
2022-10-07T02:56:46.719Z,3.00
2022-10-07T02:59:23.629Z,2.35
2022-10-07T03:01:58.316Z,2.88
2022-10-07T03:04:42.109Z,2.33
2022-10-07T03:07:12.191Z,2.05
2022-10-07T03:09:50.445Z,2.05
2022-10-07T03:12:18.183Z,2.30
2022-10-07T03:14:50.694Z,2.28
2022-10-07T03:20:15.405Z,1.95
2022-10-07T03:22:47.683Z,2.38
2022-10-07T03:25:19.742Z,2.20
2022-10-07T03:27:55.550Z,1.98
2022-10-07T11:01:24.864Z,1.40
2022-10-07T11:04:18.251Z,1.38
2022-10-07T11:06:51.182Z,1.50
2022-10-07T11:09:31.324Z,1.50
2022-10-07T11:12:04.828Z,1.35
2022-10-07T11:14:34.135Z,2.40
2022-10-07T15:58:54.820Z,6.07
2022-10-07T16:05:07.778Z,6.95
